Terminal Aerodrome Forecast
Issued by NWS Sterling, VA

Home | Current Version | Previous Version | Text Only | Print | Product List | Glossary On
Versions: 1 2 3 4 5 6 7 8 9 10 11 12 13 14 15 16 17 18 19 20 21
000
FTUS41 KLWX 242041 AAA
TAFDCA
TAF AMD
KDCA 242041Z 2421/2518 14005KT P6SM FEW050 SCT200
     FM250200 16005KT P6SM BKN050
     FM251100 23004KT P6SM BKN100
     FM251500 24005KT P6SM SCT060=

USA.gov is the U.S. government's official web portal to all federal, state and local government web resources and services.